createdAt,value
2018-09-20T00:02:10.310Z,96.40
2018-09-20T00:04:38.507Z,96.40
2018-09-20T00:07:06.733Z,96.50
2018-09-20T00:09:34.968Z,96.40
2018-09-20T00:12:03.176Z,96.40
2018-09-20T00:14:31.385Z,96.30
2018-09-20T00:16:59.603Z,96.20
2018-09-20T00:19:27.912Z,95.70
2018-09-20T00:21:56.108Z,96.10
2018-09-20T00:24:24.325Z,96.10
2018-09-20T00:26:52.528Z,96.10
2018-09-20T00:29:20.735Z,96.10
2018-09-20T00:31:48.947Z,96.10
2018-09-20T00:34:17.181Z,96.20
2018-09-20T00:36:45.409Z,96.20
2018-09-20T00:39:14.256Z,96.30
2018-09-20T00:41:42.911Z,96.30
2018-09-20T00:44:11.745Z,96.40
2018-09-20T00:46:39.960Z,96.40
2018-09-20T00:49:08.331Z,96.50
2018-09-20T00:51:36.535Z,96.50
2018-09-20T00:54:04.732Z,96.60
2018-09-20T00:56:32.968Z,96.60
2018-09-20T00:59:01.184Z,96.60
2018-09-20T01:01:29.408Z,96.70
2018-09-20T01:03:57.621Z,96.80
2018-09-20T01:06:25.820Z,96.90
2018-09-20T01:08:54.104Z,96.90
2018-09-20T01:11:22.310Z,97.00
2018-09-20T01:13:50.516Z,97.00
2018-09-20T01:16:18.726Z,97.10
2018-09-20T01:18:46.945Z,97.10
2018-09-20T01:21:15.172Z,97.20
2018-09-20T01:23:43.428Z,97.20
2018-09-20T01:26:11.625Z,97.60
2018-09-20T01:28:39.844Z,97.40
2018-09-20T01:31:08.052Z,97.50
2018-09-20T01:33:36.271Z,97.60
2018-09-20T01:36:04.480Z,97.70
2018-09-20T01:38:32.732Z,97.60
2018-09-20T01:41:01.228Z,97.50
2018-09-20T01:43:29.444Z,97.40
2018-09-20T01:45:57.640Z,97.40
2018-09-20T01:48:25.908Z,97.40
2018-09-20T01:50:54.113Z,97.40
2018-09-20T01:53:22.316Z,97.40
2018-09-20T01:55:50.672Z,97.40
2018-09-20T01:58:18.879Z,97.50
2018-09-20T02:00:47.210Z,97.50
2018-09-20T02:03:15.416Z,97.60
2018-09-20T02:05:43.613Z,97.70
2018-09-20T02:08:11.826Z,97.80
2018-09-20T02:10:40.061Z,97.90
2018-09-20T02:13:08.255Z,97.90
2018-09-20T02:15:36.484Z,98.00
2018-09-20T02:18:05.008Z,98.10
2018-09-20T02:20:33.200Z,98.10
2018-09-20T02:23:01.404Z,98.20
2018-09-20T02:25:29.636Z,98.30
2018-09-20T02:27:57.876Z,98.30
2018-09-20T02:30:26.077Z,98.40
2018-09-20T02:32:54.276Z,98.40
2018-09-20T02:35:22.502Z,98.80
2018-09-20T02:37:50.712Z,98.40
2018-09-20T02:40:19.022Z,98.70
2018-09-20T02:42:47.236Z,98.40
2018-09-20T02:45:15.643Z,98.40
2018-09-20T02:47:44.095Z,98.40
2018-09-20T02:50:12.332Z,98.40
2018-09-20T02:52:40.544Z,98.40
2018-09-20T02:55:08.757Z,98.40
2018-09-20T02:57:36.977Z,98.40
2018-09-20T03:00:05.375Z,98.40
2018-09-20T03:02:33.640Z,98.40
2018-09-20T03:05:01.845Z,98.40
2018-09-20T03:07:30.123Z,98.50
2018-09-20T03:09:58.600Z,98.50
2018-09-20T03:12:26.813Z,98.60
2018-09-20T03:14:55.009Z,98.60
2018-09-20T03:17:23.391Z,98.60
2018-09-20T03:19:51.976Z,98.70
2018-09-20T03:22:20.190Z,98.70
2018-09-20T03:24:48.436Z,98.80
2018-09-20T03:27:16.677Z,98.90
2018-09-20T03:29:44.913Z,98.90
2018-09-20T03:32:13.136Z,99.00
2018-09-20T03:34:41.365Z,99.10
2018-09-20T03:37:09.569Z,99.10
2018-09-20T03:39:37.761Z,99.20
2018-09-20T03:42:06.016Z,99.20
2018-09-20T03:44:34.262Z,99.20
2018-09-20T03:47:02.528Z,99.20
2018-09-20T03:49:30.740Z,99.20
2018-09-20T03:51:58.975Z,99.20
2018-09-20T03:54:27.488Z,99.30
2018-09-20T03:56:55.709Z,99.30
2018-09-20T03:59:23.912Z,99.40
2018-09-20T04:01:52.355Z,99.40
2018-09-20T04:04:20.576Z,99.50
2018-09-20T04:06:48.792Z,99.40
2018-09-20T04:09:17.012Z,99.40
2018-09-20T04:11:45.242Z,99.50
2018-09-20T04:14:13.485Z,99.60
2018-09-20T04:16:41.721Z,99.60
2018-09-20T04:19:09.946Z,99.60
2018-09-20T04:21:38.543Z,99.70
2018-09-20T04:24:07.097Z,99.70
2018-09-20T04:26:35.308Z,99.80
2018-09-20T04:29:03.544Z,99.80
2018-09-20T04:31:32.093Z,99.90
2018-09-20T04:34:01.496Z,99.90
2018-09-20T04:36:30.325Z,99.90
2018-09-20T04:38:58.628Z,99.90
2018-09-20T04:41:26.844Z,99.90
2018-09-20T04:43:55.070Z,99.90
2018-09-20T04:46:23.316Z,99.90
2018-09-20T04:48:51.533Z,99.90
2018-09-20T04:51:19.756Z,99.90
2018-09-20T04:53:48.012Z,99.90
2018-09-20T04:56:16.227Z,99.90
2018-09-20T04:58:44.581Z,99.90
2018-09-20T05:01:12.801Z,99.90
2018-09-20T05:03:41.024Z,99.90
2018-09-20T05:06:09.712Z,99.90
2018-09-20T05:08:37.979Z,99.90
2018-09-20T05:11:06.176Z,99.90
2018-09-20T05:13:34.404Z,99.90
2018-09-20T05:16:02.975Z,99.90
2018-09-20T05:18:31.188Z,99.90
2018-09-20T05:20:59.717Z,99.90
2018-09-20T05:23:28.228Z,99.90
2018-09-20T05:25:56.432Z,99.90
2018-09-20T05:28:24.749Z,99.90
2018-09-20T05:30:52.944Z,99.90
2018-09-20T05:33:21.362Z,99.90
2018-09-20T05:35:49.730Z,99.90
2018-09-20T05:38:17.936Z,99.90
2018-09-20T05:40:46.184Z,99.90
2018-09-20T05:43:14.420Z,99.90
2018-09-20T05:45:42.636Z,99.90
2018-09-20T05:48:11.025Z,99.90
2018-09-20T05:50:39.278Z,99.90
2018-09-20T05:53:07.460Z,99.90
2018-09-20T05:55:35.785Z,99.90
2018-09-20T05:58:33.517Z,99.90
2018-09-20T06:01:01.901Z,99.90
2018-09-20T06:03:30.252Z,99.90
2018-09-20T06:05:58.537Z,99.80
2018-09-20T06:08:26.704Z,99.70
2018-09-20T06:10:54.929Z,99.60
2018-09-20T06:13:23.234Z,99.50
2018-09-20T06:15:51.464Z,99.30
2018-09-20T06:18:19.681Z,99.20
2018-09-20T06:20:47.872Z,99.00
2018-09-20T06:23:16.460Z,98.90
2018-09-20T06:25:44.783Z,98.70
2018-09-20T06:28:12.996Z,98.60
2018-09-20T06:30:41.240Z,98.40
2018-09-20T06:33:09.467Z,98.20
2018-09-20T06:35:37.820Z,98.00
2018-09-20T06:38:06.020Z,97.80
2018-09-20T06:40:34.262Z,97.60
2018-09-20T06:43:02.775Z,97.40
2018-09-20T06:45:31.022Z,97.10
2018-09-20T06:47:59.281Z,96.80
2018-09-20T06:50:27.563Z,96.60
2018-09-20T06:52:55.769Z,96.40
2018-09-20T06:55:23.991Z,96.10
2018-09-20T06:57:52.228Z,95.90
2018-09-20T07:00:20.424Z,95.80
2018-09-20T07:02:48.664Z,95.60
2018-09-20T07:05:16.944Z,95.40
2018-09-20T07:07:45.184Z,95.20
2018-09-20T07:10:13.426Z,95.10
2018-09-20T07:12:41.924Z,95.00
2018-09-20T07:15:10.248Z,94.80
2018-09-20T07:17:38.472Z,94.60
2018-09-20T07:20:06.949Z,94.50
2018-09-20T07:22:35.186Z,94.50
2018-09-20T07:25:03.422Z,94.40
2018-09-20T07:27:31.660Z,94.40
2018-09-20T07:29:59.880Z,94.30
2018-09-20T07:32:28.158Z,94.10
2018-09-20T07:34:56.360Z,94.00
2018-09-20T07:37:24.565Z,93.80
2018-09-20T07:39:52.816Z,93.60
2018-09-20T07:42:21.049Z,93.40
2018-09-20T07:44:49.251Z,93.20
2018-09-20T07:47:17.575Z,93.40
2018-09-20T07:49:46.140Z,92.80
2018-09-20T07:52:14.428Z,92.50
2018-09-20T07:54:42.688Z,92.20
2018-09-20T07:57:10.921Z,91.90
2018-09-20T07:59:39.140Z,91.50
2018-09-20T08:02:07.398Z,91.20
2018-09-20T08:04:35.565Z,90.90
2018-09-20T08:07:03.970Z,90.60
2018-09-20T08:09:32.158Z,90.30
2018-09-20T08:12:00.545Z,90.00
2018-09-20T08:14:28.779Z,89.30
2018-09-20T08:16:56.972Z,88.50
2018-09-20T08:19:25.353Z,87.70
2018-09-20T08:21:53.612Z,86.90
2018-09-20T08:24:21.905Z,86.40
2018-09-20T08:26:50.396Z,85.90
2018-09-20T08:29:18.617Z,85.30
2018-09-20T08:31:46.812Z,85.00
2018-09-20T08:34:15.085Z,84.50
2018-09-20T08:36:43.297Z,83.80
2018-09-20T08:39:12.396Z,83.40
2018-09-20T08:41:40.652Z,83.50
2018-09-20T08:44:09.118Z,82.40
2018-09-20T08:46:37.338Z,81.80
2018-09-20T08:49:05.584Z,81.50
2018-09-20T08:51:33.830Z,81.00
2018-09-20T08:54:02.068Z,80.60
2018-09-20T08:56:30.286Z,80.20
2018-09-20T08:58:58.492Z,79.90
2018-09-20T09:01:26.756Z,79.40
2018-09-20T09:03:54.945Z,79.00
2018-09-20T09:06:23.163Z,78.70
2018-09-20T09:08:51.352Z,78.10
2018-09-20T09:11:19.556Z,77.60
2018-09-20T09:13:47.772Z,77.40
2018-09-20T09:16:15.988Z,77.00
2018-09-20T09:18:44.228Z,76.60
2018-09-20T09:21:12.569Z,76.30
2018-09-20T09:23:40.840Z,76.10
2018-09-20T09:26:09.040Z,75.70
2018-09-20T09:28:37.294Z,75.30
2018-09-20T09:31:05.464Z,74.90
2018-09-20T09:33:33.652Z,74.70
2018-09-20T09:36:01.859Z,74.10
2018-09-20T09:38:30.149Z,73.40
2018-09-20T09:40:58.341Z,72.80
2018-09-20T09:43:26.564Z,72.70
2018-09-20T09:45:54.779Z,72.70
2018-09-20T09:48:22.971Z,72.30
2018-09-20T09:50:51.180Z,72.00
2018-09-20T09:53:19.404Z,71.40
2018-09-20T09:55:47.772Z,70.70
2018-09-20T09:58:15.965Z,70.20
2018-09-20T10:00:44.180Z,69.90
2018-09-20T10:03:12.440Z,69.80
2018-09-20T10:05:40.653Z,69.90
2018-09-20T10:08:08.846Z,69.90
2018-09-20T10:10:37.057Z,69.90
2018-09-20T10:13:05.491Z,69.70
2018-09-20T10:15:33.772Z,69.30
2018-09-20T10:18:01.990Z,68.90
2018-09-20T10:20:30.206Z,68.50
2018-09-20T10:22:58.434Z,67.50
2018-09-20T10:25:26.616Z,67.30
2018-09-20T10:27:54.836Z,66.60
2018-09-20T10:30:23.052Z,66.20
2018-09-20T10:32:51.265Z,65.60
2018-09-20T10:35:19.469Z,65.00
2018-09-20T10:37:47.681Z,64.30
2018-09-20T10:40:16.067Z,64.10
2018-09-20T10:42:44.276Z,63.50
2018-09-20T10:45:12.498Z,63.60
2018-09-20T10:47:40.788Z,63.20
2018-09-20T10:50:09.164Z,63.30
2018-09-20T10:52:37.372Z,63.40
2018-09-20T10:55:05.590Z,63.70
2018-09-20T10:57:33.974Z,63.20
2018-09-20T11:00:02.185Z,62.70
2018-09-20T11:02:30.684Z,62.30
2018-09-20T11:04:59.152Z,62.60
2018-09-20T11:07:27.609Z,61.30
2018-09-20T11:09:55.799Z,60.80
2018-09-20T11:12:24.216Z,60.20
2018-09-20T11:14:52.448Z,60.50
2018-09-20T11:17:20.675Z,60.50
2018-09-20T11:19:48.872Z,60.80
2018-09-20T11:22:17.089Z,60.80
2018-09-20T11:24:45.439Z,60.80
2018-09-20T11:27:13.661Z,60.90
2018-09-20T11:29:41.865Z,61.00
2018-09-20T11:32:10.084Z,60.90
2018-09-20T11:34:38.286Z,60.90
2018-09-20T11:37:06.484Z,60.40
2018-09-20T11:39:34.692Z,59.90
2018-09-20T11:42:02.884Z,60.20
2018-09-20T11:44:31.125Z,59.70
2018-09-20T11:46:59.402Z,59.30
2018-09-20T11:49:27.624Z,59.10
2018-09-20T11:51:55.828Z,58.70
2018-09-20T11:54:24.045Z,58.50
2018-09-20T11:56:52.244Z,58.40
2018-09-20T11:59:20.431Z,58.20
2018-09-20T12:01:48.660Z,57.80
2018-09-20T12:04:16.861Z,57.50
2018-09-20T12:06:45.085Z,57.40
2018-09-20T12:09:13.884Z,57.20
2018-09-20T12:11:42.156Z,57.20
2018-09-20T12:14:10.406Z,57.20
2018-09-20T12:16:38.588Z,56.80
2018-09-20T12:19:06.828Z,56.80
2018-09-20T12:21:35.053Z,56.60
2018-09-20T12:24:03.240Z,56.40
2018-09-20T12:26:31.452Z,56.20
2018-09-20T12:28:59.686Z,55.90
2018-09-20T12:31:27.956Z,55.30
2018-09-20T12:33:56.156Z,55.00
2018-09-20T12:36:24.367Z,54.70
2018-09-20T12:38:52.599Z,54.70
2018-09-20T12:41:20.835Z,54.60
2018-09-20T12:43:49.032Z,54.50
2018-09-20T12:46:17.259Z,54.50
2018-09-20T12:48:45.562Z,54.40
2018-09-20T12:51:13.785Z,54.00
2018-09-20T12:53:42.706Z,53.70
2018-09-20T12:56:10.918Z,53.40
2018-09-20T12:58:46.399Z,53.10
2018-09-20T13:01:14.723Z,53.20
2018-09-20T13:03:42.942Z,53.10
2018-09-20T13:06:11.177Z,53.10
2018-09-20T13:08:39.365Z,52.50
2018-09-20T13:11:07.624Z,51.90
2018-09-20T13:13:35.824Z,51.30
2018-09-20T13:16:04.036Z,50.90
2018-09-20T13:18:32.252Z,50.50
2018-09-20T13:21:00.459Z,50.10
2018-09-20T13:23:28.699Z,50.00
2018-09-20T13:25:56.944Z,49.90
2018-09-20T13:28:25.152Z,49.80
2018-09-20T13:30:53.380Z,49.90
2018-09-20T13:33:21.583Z,49.90
2018-09-20T13:35:49.776Z,50.00
2018-09-20T13:38:18.024Z,49.80
2018-09-20T13:40:46.224Z,49.20
2018-09-20T13:43:14.545Z,48.50
2018-09-20T13:45:42.769Z,48.40
2018-09-20T13:48:10.999Z,48.30
2018-09-20T13:50:39.365Z,48.30
2018-09-20T13:53:07.559Z,48.00
2018-09-20T13:55:35.756Z,47.50
2018-09-20T13:58:03.994Z,46.60
2018-09-20T14:00:32.198Z,45.60
2018-09-20T14:03:00.456Z,45.40
2018-09-20T14:05:28.657Z,44.80
2018-09-20T14:07:56.929Z,44.90
2018-09-20T14:10:25.117Z,44.60
2018-09-20T14:12:53.380Z,44.20
2018-09-20T14:15:21.643Z,44.20
2018-09-20T14:17:49.837Z,44.10
2018-09-20T14:20:18.056Z,43.90
2018-09-20T14:22:46.262Z,43.90
2018-09-20T14:25:14.504Z,43.80
2018-09-20T14:27:42.796Z,43.80
2018-09-20T14:30:11.010Z,43.80
2018-09-20T14:32:39.233Z,43.40
2018-09-20T14:35:07.485Z,43.40
2018-09-20T14:37:35.676Z,43.50
2018-09-20T14:40:04.057Z,43.50
2018-09-20T14:42:32.419Z,43.10
2018-09-20T14:45:00.618Z,42.80
2018-09-20T14:47:29.015Z,42.90
2018-09-20T14:49:57.203Z,43.00
2018-09-20T14:52:26.498Z,43.00
2018-09-20T14:54:54.838Z,42.70
2018-09-20T14:57:23.064Z,43.00
2018-09-20T14:59:51.296Z,43.10
2018-09-20T15:02:19.817Z,43.00
2018-09-20T15:04:47.992Z,43.00
2018-09-20T15:07:16.200Z,42.80
2018-09-20T15:09:44.540Z,42.70
2018-09-20T15:12:12.732Z,42.50
2018-09-20T15:14:40.937Z,42.60
2018-09-20T15:17:09.204Z,43.60
2018-09-20T15:19:37.408Z,44.30
2018-09-20T15:22:05.672Z,44.90
2018-09-20T15:24:33.909Z,45.10
2018-09-20T15:27:02.252Z,45.40
2018-09-20T15:29:30.456Z,45.60
2018-09-20T15:31:58.672Z,45.70
2018-09-20T15:34:27.053Z,46.20
2018-09-20T15:36:55.302Z,45.70
2018-09-20T15:39:23.491Z,45.80
2018-09-20T15:41:51.742Z,45.90
2018-09-20T15:44:19.917Z,45.90
2018-09-20T15:46:48.144Z,46.10
2018-09-20T15:49:16.364Z,46.10
2018-09-20T15:51:44.660Z,46.20
2018-09-20T15:54:12.964Z,45.90
2018-09-20T15:56:41.192Z,45.50
2018-09-20T15:59:09.412Z,45.30
2018-09-20T16:01:37.615Z,45.30
2018-09-20T16:04:05.921Z,45.20
2018-09-20T16:06:34.171Z,45.20
2018-09-20T16:09:02.484Z,45.20
2018-09-20T16:11:30.688Z,45.30
2018-09-20T16:13:58.931Z,45.20
2018-09-20T16:16:27.157Z,45.10
2018-09-20T16:18:55.354Z,45.00
2018-09-20T16:21:23.551Z,45.00
2018-09-20T16:23:51.752Z,45.20
2018-09-20T16:26:19.944Z,45.30
2018-09-20T16:28:59.685Z,45.50
2018-09-20T16:31:49.926Z,45.50
2018-09-20T16:36:33.180Z,45.50
2018-09-20T16:39:09.480Z,45.50
2018-09-20T16:41:42.319Z,45.60
2018-09-20T16:44:10.564Z,45.80
2018-09-20T16:46:38.764Z,46.00
2018-09-20T16:49:06.996Z,46.10
2018-09-20T16:51:35.216Z,46.40
2018-09-20T16:54:03.722Z,46.60
2018-09-20T16:56:31.935Z,46.70
2018-09-20T16:59:00.209Z,46.90
2018-09-20T17:01:28.569Z,47.10
2018-09-20T17:03:56.776Z,47.20
2018-09-20T17:06:25.072Z,47.40
2018-09-20T17:08:53.401Z,47.60
2018-09-20T17:11:21.624Z,47.80
2018-09-20T17:13:49.847Z,48.20
2018-09-20T17:16:18.326Z,48.40
2018-09-20T17:18:46.484Z,48.70
2018-09-20T17:21:14.740Z,48.90
2018-09-20T17:23:43.000Z,49.20
2018-09-20T17:26:11.249Z,49.50
2018-09-20T17:28:39.592Z,50.40
2018-09-20T17:31:07.808Z,50.20
2018-09-20T17:33:36.057Z,50.60
2018-09-20T17:36:04.925Z,50.80
2018-09-20T17:38:33.964Z,51.20
2018-09-20T17:41:05.008Z,51.60
2018-09-20T17:44:05.816Z,52.10
2018-09-20T17:46:34.110Z,52.70
2018-09-20T17:49:02.339Z,53.10
2018-09-20T17:51:30.948Z,53.40
2018-09-20T17:53:59.611Z,53.70
2018-09-20T17:56:28.284Z,54.70
2018-09-20T17:58:57.055Z,54.60
2018-09-20T18:01:25.277Z,55.40
2018-09-20T18:03:53.595Z,56.20
2018-09-20T18:06:21.816Z,56.90
2018-09-20T18:08:50.060Z,57.60
2018-09-20T18:11:18.339Z,58.40
2018-09-20T18:13:46.557Z,59.10
2018-09-20T18:16:14.788Z,59.70
2018-09-20T18:18:43.000Z,60.10
2018-09-20T18:21:11.212Z,60.80
2018-09-20T18:23:39.428Z,61.50
2018-09-20T18:26:07.615Z,62.20
2018-09-20T18:28:35.832Z,63.00
2018-09-20T18:31:04.064Z,63.80
2018-09-20T18:33:32.269Z,64.60
2018-09-20T18:36:00.492Z,65.40
2018-09-20T18:38:28.716Z,66.30
2018-09-20T18:40:56.928Z,67.00
2018-09-20T18:43:26.151Z,67.20
2018-09-20T18:45:54.373Z,67.60
2018-09-20T18:48:22.633Z,68.20
2018-09-20T18:50:50.822Z,68.60
2018-09-20T18:53:19.012Z,69.10
2018-09-20T18:55:47.360Z,69.70
2018-09-20T18:58:15.572Z,70.30
2018-09-20T19:00:43.828Z,70.90
2018-09-20T19:03:12.132Z,71.60
2018-09-20T19:05:40.310Z,72.40
2018-09-20T19:08:08.982Z,73.00
2018-09-20T19:10:37.176Z,73.60
2018-09-20T19:13:05.504Z,74.10
2018-09-20T19:15:33.718Z,74.70
2018-09-20T19:18:01.920Z,75.40
2018-09-20T19:20:30.150Z,76.10
2018-09-20T19:22:58.360Z,76.50
2018-09-20T19:25:26.572Z,77.60
2018-09-20T19:27:54.798Z,77.50
2018-09-20T19:30:23.057Z,78.20
2018-09-20T19:32:51.244Z,78.50
2018-09-20T19:35:19.472Z,78.80
2018-09-20T19:37:47.675Z,78.80
2018-09-20T19:40:15.900Z,79.00
2018-09-20T19:42:44.174Z,79.40
2018-09-20T19:45:12.604Z,79.80
2018-09-20T19:47:40.944Z,79.70
2018-09-20T19:50:09.161Z,79.70
2018-09-20T19:52:37.576Z,79.60
2018-09-20T19:55:05.891Z,79.80
2018-09-20T19:57:34.045Z,80.40
2018-09-20T20:00:02.519Z,81.10
2018-09-20T20:02:30.728Z,81.40
2018-09-20T20:04:58.952Z,81.50
2018-09-20T20:07:27.160Z,81.30
2018-09-20T20:09:55.391Z,81.30
2018-09-20T20:12:23.708Z,81.50
2018-09-20T20:14:51.912Z,81.80
2018-09-20T20:17:20.149Z,82.30
2018-09-20T20:19:48.709Z,82.60
2018-09-20T20:22:16.857Z,83.70
2018-09-20T20:24:45.056Z,83.40
2018-09-20T20:27:13.282Z,83.60
2018-09-20T20:29:41.544Z,84.10
2018-09-20T20:32:09.755Z,84.50
2018-09-20T20:34:37.999Z,84.80
2018-09-20T20:37:06.408Z,85.20
2018-09-20T20:39:34.628Z,85.50
2018-09-20T20:42:02.844Z,86.00
2018-09-20T20:44:31.043Z,86.30
2018-09-20T20:46:59.271Z,86.60
2018-09-20T20:49:27.543Z,87.00
2018-09-20T20:51:55.735Z,87.30
2018-09-20T20:54:23.952Z,87.60
2018-09-20T20:56:52.155Z,88.00
2018-09-20T20:59:20.373Z,88.00
2018-09-20T21:01:48.601Z,88.20
2018-09-20T21:04:16.803Z,88.00
2018-09-20T21:06:45.683Z,88.00
2018-09-20T21:09:13.893Z,88.00
2018-09-20T21:11:42.128Z,87.90
2018-09-20T21:14:10.350Z,87.80
2018-09-20T21:16:38.561Z,88.00
2018-09-20T21:19:06.852Z,88.20
2018-09-20T21:21:35.664Z,88.40
2018-09-20T21:24:04.118Z,88.90
2018-09-20T21:26:32.333Z,89.10
2018-09-20T21:29:00.668Z,89.60
2018-09-20T21:31:28.872Z,89.90
2018-09-20T21:33:57.111Z,90.10
2018-09-20T21:36:26.068Z,90.20
2018-09-20T21:38:54.356Z,90.40
2018-09-20T21:41:22.553Z,90.50
2018-09-20T21:43:50.788Z,90.60
2018-09-20T21:46:19.008Z,90.70
2018-09-20T21:48:47.228Z,90.80
2018-09-20T21:51:15.654Z,91.00
2018-09-20T21:53:43.794Z,91.10
2018-09-20T21:56:12.032Z,91.30
2018-09-20T21:58:40.555Z,91.40
2018-09-20T22:01:12.751Z,91.50
2018-09-20T22:03:41.094Z,91.70
2018-09-20T22:06:09.363Z,91.70
2018-09-20T22:08:37.660Z,91.70
2018-09-20T22:11:05.881Z,91.80
2018-09-20T22:13:34.141Z,91.80
2018-09-20T22:16:02.417Z,91.90
2018-09-20T22:18:30.619Z,92.00
2018-09-20T22:20:58.832Z,92.10
2018-09-20T22:23:30.054Z,92.20
2018-09-20T22:25:58.408Z,92.30
2018-09-20T22:28:26.596Z,92.40
2018-09-20T22:30:54.840Z,92.50
2018-09-20T22:33:23.080Z,92.60
2018-09-20T22:35:51.341Z,92.60
2018-09-20T22:38:19.546Z,92.60
2018-09-20T22:40:47.826Z,92.60
2018-09-20T22:43:16.011Z,92.80
2018-09-20T22:45:44.224Z,92.50
2018-09-20T22:48:12.446Z,92.60
2018-09-20T22:50:40.672Z,92.60
2018-09-20T22:53:08.880Z,92.70
2018-09-20T22:55:37.064Z,92.90
2018-09-20T22:58:05.431Z,93.10
2018-09-20T23:00:33.812Z,93.10
2018-09-20T23:03:02.016Z,93.00
2018-09-20T23:05:30.241Z,93.00
2018-09-20T23:07:58.589Z,92.90
2018-09-20T23:10:26.947Z,92.90
2018-09-20T23:12:55.143Z,92.90
2018-09-20T23:15:23.332Z,93.00
2018-09-20T23:17:51.604Z,93.10
2018-09-20T23:20:19.808Z,93.20
2018-09-20T23:22:48.013Z,93.30
2018-09-20T23:25:16.568Z,93.40
2018-09-20T23:27:44.776Z,93.40
2018-09-20T23:30:13.002Z,93.40
2018-09-20T23:32:41.236Z,93.40
2018-09-20T23:35:09.447Z,93.40
2018-09-20T23:37:38.056Z,93.50
2018-09-20T23:40:06.283Z,93.60
2018-09-20T23:42:34.460Z,93.70
2018-09-20T23:45:02.673Z,93.80
2018-09-20T23:47:30.868Z,93.90
2018-09-20T23:49:59.068Z,94.10
2018-09-20T23:52:27.302Z,94.20
2018-09-20T23:54:55.904Z,94.30
2018-09-20T23:57:24.205Z,94.40
2018-09-20T23:59:52.379Z,94.50
